Terminal Aerodrome Forecast
Issued by NWS Portland, OR

Home | Current Version | Previous Version | Text Only | Print | Product List | Glossary On
Versions: 1 2 3 4 5 6 7 8 9 10 11 12 13 14 15 16 17 18 19 20 21 22 23 24 25 26 27 28 29 30 31 32
000
FTUS46 KPQR 211728 CCA
TAFEUG
TAF COR
KEUG 211728Z 2118/2218 35007KT P6SM FEW025 SCT040
      TEMPO 2118/2119 BKN025 BKN040
     FM212100 36010KT P6SM FEW040
     FM220300 01005KT P6SM SCT250
     FM221600 01010KT P6SM SCT250=

USA.gov is the U.S. government's official web portal to all federal, state and local government web resources and services.